Time;durP1;ratioP1;P1;durP2;ratioP2;P2;SDS_P1;SDS_P2;PMS_P1;PMS_P2;Temp;Humidity;BMP_temperature;BMP_pressure;BME280_temperature;BME280_humidity;BME280_pressure;Samples;Min_cycle;Max_cycle;Signal;HPM_P1;HPM_P2
2020/12/22 01:08:24;;;;;;;4.78;3.67;;;7.80;99.90;;;;;;4960751;29;20078;-82
2020/12/22 01:16:41;;;;;;;5.75;3.70;;;7.90;99.90;;;;;;4893511;29;20047;-82
2020/12/22 01:25:19;;;;;;;5.95;4.65;;;8.00;99.90;;;;;;4894003;29;20066;-82
2020/12/22 02:24:44;;;;;;;4.95;4.03;;;8.30;99.90;;;;;;4966514;28;20118;-81
2020/12/22 02:28:26;;;;;;;4.78;4.00;;;8.40;99.90;;;;;;4929042;29;20035;-82
2020/12/22 02:32:35;;;;;;;5.93;4.07;;;8.30;99.90;;;;;;4937026;29;20124;-82
2020/12/22 02:36:19;;;;;;;;;;;8.30;99.90;;;;;;4971468;28;20115;-82
2020/12/22 02:40:55;;;;;;;5.63;4.05;;;8.40;99.90;;;;;;4982162;28;19917;-81
2020/12/22 02:45:18;;;;;;;4.95;4.22;;;8.40;99.90;;;;;;4896636;29;20078;-82
2020/12/22 02:49:59;;;;;;;4.25;3.50;;;8.40;99.90;;;;;;4832312;29;20046;-81
2020/12/22 02:54:04;;;;;;;5.63;3.95;;;8.50;99.90;;;;;;4814095;29;20115;-82
2020/12/22 02:58:34;;;;;;;4.55;3.70;;;8.60;99.90;;;;;;4813994;29;20041;-82
2020/12/22 03:02:34;;;;;;;4.60;3.67;;;8.60;99.90;;;;;;4796260;30;20039;-82
2020/12/22 03:06:51;;;;;;;4.68;3.15;;;8.60;99.90;;;;;;4794012;30;20038;-82
2020/12/22 03:10:39;;;;;;;;;;;8.70;99.90;;;;;;4777519;30;20095;-81
2020/12/22 03:27:13;;;;;;;4.72;3.90;;;8.80;99.90;;;;;;4885757;29;20120;-81
2020/12/22 03:44:15;;;;;;;4.53;3.45;;;8.80;99.90;;;;;;4812781;29;20065;-82
2020/12/22 03:57:18;;;;;;;5.68;3.30;;;8.90;99.90;;;;;;4811440;29;20136;-81
2020/12/22 04:01:18;;;;;;;5.10;3.70;;;9.00;99.90;;;;;;4873172;29;20089;-81
2020/12/22 04:04:58;;;;;;;4.45;3.00;;;9.00;99.90;;;;;;4893481;29;20063;-82
2020/12/22 04:08:45;;;;;;;3.65;3.17;;;9.00;99.90;;;;;;4856112;29;20054;-80
2020/12/22 04:12:49;;;;;;;4.43;3.22;;;9.10;99.90;;;;;;4799936;29;20103;-81
2020/12/22 04:21:09;;;;;;;5.03;2.65;;;9.10;99.90;;;;;;4828811;29;20056;-81
2020/12/22 04:24:39;;;;;;;3.65;2.80;;;9.20;99.90;;;;;;4830167;29;20080;-81
2020/12/22 04:28:34;;;;;;;3.63;2.97;;;9.10;99.90;;;;;;4827318;29;20057;-81
2020/12/22 04:32:40;;;;;;;3.67;3.03;;;9.20;99.90;;;;;;4809968;29;20125;-81
2020/12/22 04:36:28;;;;;;;3.08;2.55;;;9.20;99.90;;;;;;4828287;29;20082;-81
2020/12/22 04:40:44;;;;;;;5.38;2.80;;;9.20;99.90;;;;;;4866129;29;20056;-81
2020/12/22 04:44:50;;;;;;;3.00;2.17;;;9.20;99.90;;;;;;4828442;29;20087;-82
2020/12/22 05:02:28;;;;;;;2.72;1.80;;;9.40;99.90;;;;;;4848147;29;20053;-81
2020/12/22 05:06:55;;;;;;;3.28;1.63;;;9.50;99.90;;;;;;4812290;29;20057;-81
2020/12/22 05:15:37;;;;;;;2.28;1.40;;;9.60;99.90;;;;;;4810894;29;20098;-80
2020/12/22 05:24:17;;;;;;;1.75;1.40;;;9.80;99.90;;;;;;4828825;29;20084;-80
2020/12/22 05:28:54;;;;;;;1.88;1.55;;;9.80;99.90;;;;;;4828202;29;20065;-82
2020/12/22 05:33:14;;;;;;;2.67;1.40;;;9.70;99.90;;;;;;4831680;29;20169;-81
2020/12/22 05:41:53;;;;;;;1.60;1.17;;;9.70;99.90;;;;;;4824398;29;20059;-80
2020/12/22 05:44:34;;;;;;;1.70;1.10;;;9.70;99.90;;;;;;4788590;29;20115;-78
2020/12/22 05:47:05;;;;;;;1.77;1.20;;;9.60;99.90;;;;;;4802389;29;20058;-79
2020/12/22 05:49:33;;;;;;;1.63;1.25;;;9.60;99.90;;;;;;4827784;29;20049;-78
2020/12/22 05:52:07;;;;;;;1.52;1.30;;;9.70;99.90;;;;;;4900173;29;20048;-78
2020/12/22 05:54:36;;;;;;;1.60;1.30;;;9.70;99.90;;;;;;4921226;29;20058;-79
2020/12/22 05:57:07;;;;;;;1.80;1.23;;;9.70;99.90;;;;;;4921253;29;20078;-78
2020/12/22 05:59:34;;;;;;;1.65;1.30;;;9.60;99.90;;;;;;4935473;29;20051;-78
2020/12/22 06:02:06;;;;;;;1.63;1.15;;;9.60;99.90;;;;;;4921546;29;20050;-78
2020/12/22 06:04:34;;;;;;;1.60;1.38;;;9.60;99.90;;;;;;4936190;29;20519;-78
2020/12/22 06:07:06;;;;;;;1.70;1.40;;;9.50;99.90;;;;;;4921693;29;20044;-78
2020/12/22 06:09:34;;;;;;;1.95;1.33;;;9.50;99.90;;;;;;4920018;29;20403;-79
2020/12/22 06:12:06;;;;;;;2.05;1.63;;;9.50;99.90;;;;;;4920149;29;20138;-79
2020/12/22 06:14:34;;;;;;;2.78;1.20;;;9.50;99.90;;;;;;4936394;29;20518;-79
2020/12/22 06:17:12;;;;;;;2.03;1.60;;;9.60;99.90;;;;;;4921219;29;20513;-78
2020/12/22 06:19:42;;;;;;;1.90;1.42;;;9.60;99.90;;;;;;4919519;29;20431;-79
2020/12/22 06:22:17;;;;;;;2.08;1.70;;;9.60;99.90;;;;;;4920849;29;20059;-79
2020/12/22 06:24:45;;;;;;;2.35;1.20;;;9.60;99.90;;;;;;4920531;29;20046;-78
2020/12/22 06:27:13;;;;;;;4.35;1.30;;;9.70;99.90;;;;;;4920467;29;20102;-78
2020/12/22 06:29:42;;;;;;;3.33;1.40;;;9.70;99.90;;;;;;4919473;29;20492;-79
2020/12/22 06:32:27;;;;;;;1.85;1.27;;;9.80;99.90;;;;;;4920611;29;20051;-78
2020/12/22 06:35:29;;;;;;;2.15;1.30;;;9.80;99.90;;;;;;4922260;28;20043;-79
2020/12/22 06:37:57;;;;;;;2.08;1.58;;;9.70;99.90;;;;;;4954834;28;20051;-78
2020/12/22 06:40:55;;;;;;;3.08;2.05;;;9.80;99.90;;;;;;4950327;28;20043;-78
2020/12/22 06:43:42;;;;;;;2.00;1.30;;;9.80;99.90;;;;;;4929761;29;20070;-79
2020/12/22 06:46:30;;;;;;;2.20;1.27;;;9.80;99.90;;;;;;4935860;29;20051;-79
2020/12/22 06:48:57;;;;;;;1.77;1.20;;;9.90;99.90;;;;;;4934787;29;20047;-78
2020/12/22 06:51:32;;;;;;;1.50;0.98;;;9.90;99.90;;;;;;4947657;29;20039;-78
2020/12/22 06:54:21;;;;;;;1.90;1.20;;;9.90;99.90;;;;;;4933435;28;20101;-79
2020/12/22 06:56:50;;;;;;;1.40;1.08;;;9.80;99.90;;;;;;4905909;29;20043;-78
2020/12/22 06:59:40;;;;;;;1.90;1.33;;;9.90;99.90;;;;;;4951222;28;20528;-79
2020/12/22 07:02:38;;;;;;;1.50;1.10;;;9.80;99.90;;;;;;4925266;29;20047;-78
2020/12/22 07:05:10;;;;;;;1.83;1.20;;;9.80;99.90;;;;;;4920311;29;20357;-79
2020/12/22 07:07:57;;;;;;;2.47;1.77;;;9.90;99.90;;;;;;4929164;28;20038;-79
2020/12/22 07:10:28;;;;;;;1.48;1.27;;;9.90;99.90;;;;;;4942899;29;20047;-79
2020/12/22 07:12:57;;;;;;;1.50;1.15;;;9.90;99.90;;;;;;4936021;29;20138;-79
2020/12/22 07:15:36;;;;;;;2.72;1.33;;;9.90;99.90;;;;;;4935311;29;20046;-79
2020/12/22 07:18:14;;;;;;;4.30;1.65;;;9.90;99.90;;;;;;4934375;29;20482;-79
2020/12/22 07:20:47;;;;;;;1.92;1.33;;;9.90;99.90;;;;;;4916053;29;20127;-78
2020/12/22 07:23:19;;;;;;;1.13;0.90;;;9.90;99.90;;;;;;4916722;29;20062;-78
2020/12/22 07:25:52;;;;;;;1.50;1.20;;;10.00;99.90;;;;;;4900821;29;20082;-79
2020/12/22 07:28:19;;;;;;;1.52;1.25;;;10.00;99.90;;;;;;4925686;29;20537;-79
2020/12/22 07:30:46;;;;;;;1.80;1.17;;;10.00;99.90;;;;;;4915652;29;20054;-78
2020/12/22 07:33:14;;;;;;;0.95;0.80;;;10.00;99.90;;;;;;4915799;29;20048;-79
2020/12/22 07:35:41;;;;;;;1.65;1.10;;;10.10;99.90;;;;;;4932012;28;20044;-79
2020/12/22 07:38:10;;;;;;;1.33;0.88;;;10.10;99.90;;;;;;4937441;28;20391;-79
2020/12/22 07:40:38;;;;;;;2.05;0.82;;;10.10;99.90;;;;;;4925671;29;20422;-78
2020/12/22 07:43:12;;;;;;;1.35;0.88;;;10.10;99.90;;;;;;4934630;29;20044;-79
2020/12/22 07:45:50;;;;;;;1.80;1.02;;;10.10;99.90;;;;;;4936564;28;20044;-79
2020/12/22 07:48:22;;;;;;;1.15;0.82;;;10.10;99.90;;;;;;4938043;28;20114;-79
2020/12/22 07:50:53;;;;;;;2.42;1.00;;;10.20;99.90;;;;;;4938781;28;20050;-79
2020/12/22 07:53:20;;;;;;;1.05;0.80;;;10.30;99.90;;;;;;4933683;28;20046;-78
2020/12/22 07:55:48;;;;;;;1.20;0.70;;;10.20;99.90;;;;;;4939893;28;20035;-79
2020/12/22 07:58:17;;;;;;;0.82;0.73;;;10.30;99.90;;;;;;4928804;28;20043;-79
2020/12/22 08:00:46;;;;;;;1.35;0.90;;;10.30;99.90;;;;;;4945938;29;20043;-79
2020/12/22 08:03:19;;;;;;;1.00;0.80;;;10.30;99.90;;;;;;4937230;29;20054;-79
2020/12/22 08:06:00;;;;;;;1.90;0.90;;;10.30;99.90;;;;;;4953739;28;20418;-79
2020/12/22 08:08:29;;;;;;;0.98;0.77;;;10.30;99.90;;;;;;4930766;29;20514;-79
2020/12/22 08:10:57;;;;;;;1.27;0.70;;;10.40;99.90;;;;;;4945316;28;20069;-79
2020/12/22 08:13:29;;;;;;;1.38;0.80;;;10.40;99.90;;;;;;4924412;29;20133;-79
2020/12/22 08:16:01;;;;;;;1.42;1.10;;;10.30;99.90;;;;;;4939873;28;20035;-78
2020/12/22 08:18:34;;;;;;;0.82;0.65;;;10.30;99.90;;;;;;4948715;29;20789;-79
2020/12/22 08:21:06;;;;;;;1.70;0.75;;;10.40;99.90;;;;;;4941471;28;20585;-78
2020/12/22 08:23:38;;;;;;;1.52;0.80;;;10.30;99.90;;;;;;4920267;29;20040;-79
2020/12/22 08:26:10;;;;;;;1.20;0.90;;;10.40;99.90;;;;;;4927973;28;20067;-79
2020/12/22 08:28:52;;;;;;;1.30;0.82;;;10.40;99.90;;;;;;4944155;28;20535;-79
2020/12/22 08:31:23;;;;;;;2.05;0.88;;;10.50;99.90;;;;;;4956906;28;20069;-79
2020/12/22 08:33:55;;;;;;;1.50;0.90;;;10.50;99.90;;;;;;4964769;28;20126;-78
2020/12/22 08:36:25;;;;;;;1.00;0.70;;;10.50;99.90;;;;;;4924098;29;20039;-79
2020/12/22 08:38:51;;;;;;;1.15;0.77;;;10.50;99.90;;;;;;4928662;28;20046;-79
2020/12/22 08:41:23;;;;;;;0.98;0.70;;;10.60;99.90;;;;;;4942061;28;20057;-79
2020/12/22 08:43:51;;;;;;;1.75;0.90;;;10.60;99.90;;;;;;4941610;28;20105;-78
2020/12/22 08:46:19;;;;;;;0.70;0.70;;;10.70;99.90;;;;;;4943849;28;20047;-79
2020/12/22 08:48:49;;;;;;;0.95;0.60;;;10.70;99.90;;;;;;4942413;28;20130;-79
2020/12/22 08:51:27;;;;;;;1.00;0.80;;;10.70;99.90;;;;;;4957815;28;20051;-80
2020/12/22 08:53:57;;;;;;;1.20;0.60;;;10.80;99.90;;;;;;4957015;28;20050;-79
2020/12/22 08:57:07;;;;;;;0.73;0.60;;;10.90;99.90;;;;;;4942408;28;20133;-79
2020/12/22 08:59:35;;;;;;;1.83;0.70;;;10.90;99.90;;;;;;4957014;28;20059;-80
2020/12/22 09:02:03;;;;;;;1.23;0.50;;;10.90;99.90;;;;;;4940864;28;20510;-80
2020/12/22 09:04:32;;;;;;;1.92;1.45;;;10.90;99.90;;;;;;4945457;28;20542;-80
2020/12/22 09:07:10;;;;;;;0.68;0.47;;;11.00;99.90;;;;;;4962347;28;20097;-79
2020/12/22 09:09:39;;;;;;;0.77;0.50;;;11.00;99.90;;;;;;4963038;28;20051;-80
2020/12/22 09:12:11;;;;;;;2.35;0.60;;;11.10;99.90;;;;;;4945073;28;20046;-80
2020/12/22 09:14:47;;;;;;;2.10;0.47;;;11.00;99.90;;;;;;4961888;28;20082;-80
2020/12/22 09:17:36;;;;;;;2.22;0.50;;;11.10;99.90;;;;;;4944959;28;20106;-80
2020/12/22 09:20:06;;;;;;;1.30;0.70;;;11.10;99.90;;;;;;4947388;28;20399;-80
2020/12/22 09:22:36;;;;;;;0.50;0.40;;;11.10;99.90;;;;;;4963102;28;20054;-81
2020/12/22 09:25:09;;;;;;;0.90;0.52;;;11.20;99.90;;;;;;4945718;28;20042;-81
2020/12/22 09:27:41;;;;;;;1.52;0.40;;;11.20;99.90;;;;;;4942506;29;20047;-80
2020/12/22 09:30:14;;;;;;;0.82;0.50;;;11.20;99.90;;;;;;4945964;29;20074;-80
2020/12/22 09:32:47;;;;;;;1.38;0.50;;;11.20;99.90;;;;;;4928971;29;20055;-80
2020/12/22 09:35:16;;;;;;;0.77;0.50;;;11.20;99.90;;;;;;4936353;28;20050;-80
2020/12/22 09:37:46;;;;;;;0.63;0.40;;;11.20;99.90;;;;;;4962833;28;20553;-81
2020/12/22 09:40:14;;;;;;;0.90;0.50;;;11.20;99.90;;;;;;4944701;28;20093;-80
2020/12/22 09:42:43;;;;;;;0.60;0.43;;;11.30;99.90;;;;;;4943612;28;20050;-80
2020/12/22 09:45:10;;;;;;;0.80;0.50;;;11.40;99.90;;;;;;4944544;28;20046;-80
2020/12/22 09:47:38;;;;;;;1.00;0.60;;;11.50;99.90;;;;;;4959850;28;20043;-80
2020/12/22 09:50:05;;;;;;;0.80;0.40;;;11.50;99.90;;;;;;4958968;28;20047;-81
2020/12/22 09:52:37;;;;;;;1.00;0.60;;;11.50;99.90;;;;;;4944279;28;20105;-80
2020/12/22 09:55:09;;;;;;;1.83;0.40;;;11.50;99.90;;;;;;4963707;28;20054;-82
2020/12/22 09:57:36;;;;;;;0.82;0.40;;;11.50;99.90;;;;;;4955103;29;20509;-80
2020/12/22 10:00:08;;;;;;;1.02;0.93;;;11.50;99.90;;;;;;4938580;29;20071;-78
2020/12/22 10:02:39;;;;;;;0.70;0.60;;;11.50;99.90;;;;;;4923422;29;20090;-78
2020/12/22 10:05:06;;;;;;;0.98;0.50;;;11.50;99.90;;;;;;4938918;29;20131;-80
2020/12/22 10:07:37;;;;;;;1.00;0.50;;;11.50;99.90;;;;;;4923473;29;20054;-80
2020/12/22 10:10:04;;;;;;;0.95;0.50;;;11.60;99.90;;;;;;4938247;29;20149;-79
2020/12/22 10:12:34;;;;;;;1.35;0.45;;;11.60;99.90;;;;;;4923057;29;20055;-78
2020/12/22 10:15:01;;;;;;;0.43;0.35;;;11.60;99.90;;;;;;4922321;29;20043;-80
2020/12/22 10:17:29;;;;;;;0.77;0.40;;;11.60;99.90;;;;;;4922850;29;20515;-80
2020/12/22 10:19:55;;;;;;;0.80;0.40;;;11.60;99.90;;;;;;4922253;29;20490;-79
2020/12/22 10:22:22;;;;;;;1.98;0.55;;;11.70;99.90;;;;;;4922486;29;20134;-79
2020/12/22 10:24:48;;;;;;;0.90;0.45;;;11.70;99.90;;;;;;4922962;29;20521;-76
2020/12/22 10:27:15;;;;;;;0.93;0.40;;;11.70;99.90;;;;;;4936236;29;20503;-78
2020/12/22 10:29:41;;;;;;;0.57;0.40;;;11.70;99.90;;;;;;4922811;29;20135;-79
2020/12/22 10:32:07;;;;;;;0.80;0.45;;;11.70;99.90;;;;;;4922717;29;20074;-79
2020/12/22 10:34:33;;;;;;;0.70;0.50;;;11.60;99.90;;;;;;4938577;29;20046;-79
2020/12/22 10:37:00;;;;;;;1.15;0.60;;;11.60;99.90;;;;;;4937904;29;20503;-78
2020/12/22 10:39:31;;;;;;;1.00;0.40;;;11.60;99.90;;;;;;4936715;29;20046;-75
2020/12/22 10:41:58;;;;;;;0.52;0.40;;;11.60;99.90;;;;;;4921833;29;20154;-79
2020/12/22 10:44:24;;;;;;;0.98;0.70;;;11.60;99.90;;;;;;4925116;29;20447;-80
2020/12/22 10:47:04;;;;;;;0.60;0.47;;;11.50;99.90;;;;;;4923736;29;20573;-79
2020/12/22 10:49:35;;;;;;;3.40;0.50;;;11.50;99.90;;;;;;4922692;29;20138;-79
2020/12/22 10:52:02;;;;;;;0.90;0.50;;;11.60;99.90;;;;;;4921604;29;20139;-79
2020/12/22 10:54:28;;;;;;;0.80;0.30;;;11.70;99.90;;;;;;4921575;29;20051;-79
2020/12/22 10:56:54;;;;;;;1.75;0.60;;;11.80;99.90;;;;;;4922086;29;20162;-79
2020/12/22 10:59:26;;;;;;;0.63;0.40;;;11.80;99.90;;;;;;4923911;29;20126;-79
2020/12/22 11:01:58;;;;;;;0.60;0.40;;;11.90;99.90;;;;;;4938014;29;20047;-78
2020/12/22 11:04:31;;;;;;;0.98;0.30;;;11.80;99.90;;;;;;4921162;29;20036;-78
2020/12/22 11:07:05;;;;;;;0.68;0.40;;;11.90;99.90;;;;;;4937707;29;20150;-79
2020/12/22 11:09:31;;;;;;;0.85;0.40;;;11.90;99.90;;;;;;4922848;29;20134;-80
2020/12/22 11:12:03;;;;;;;0.50;0.30;;;11.90;99.90;;;;;;4936520;29;20047;-79
2020/12/22 11:14:30;;;;;;;1.20;0.57;;;11.90;99.90;;;;;;4921346;29;20205;-76
2020/12/22 11:16:56;;;;;;;0.45;0.38;;;12.00;99.90;;;;;;4936596;29;20055;-79
2020/12/22 11:19:28;;;;;;;1.10;0.55;;;12.00;99.90;;;;;;4943107;29;20055;-79
2020/12/22 11:21:59;;;;;;;0.50;0.40;;;12.10;99.90;;;;;;4924446;29;20039;-79
2020/12/22 11:24:30;;;;;;;0.50;0.40;;;12.10;99.90;;;;;;4900723;29;20414;-78
2020/12/22 11:27:02;;;;;;;0.60;0.25;;;12.20;99.90;;;;;;4916097;29;20062;-79
2020/12/22 11:29:33;;;;;;;0.65;0.50;;;12.20;99.90;;;;;;4934958;29;20039;-79
2020/12/22 11:32:00;;;;;;;0.88;0.45;;;12.10;99.90;;;;;;4940000;28;20608;-79
2020/12/22 11:34:26;;;;;;;1.63;0.73;;;12.10;99.90;;;;;;4953865;28;20469;-78
2020/12/22 11:37:00;;;;;;;0.50;0.32;;;12.10;99.90;;;;;;4939240;28;20129;-79
2020/12/22 11:39:26;;;;;;;1.88;0.52;;;12.10;99.90;;;;;;4969987;28;20050;-79
2020/12/22 11:41:52;;;;;;;1.05;0.40;;;12.10;99.90;;;;;;4954513;28;20137;-79
2020/12/22 11:44:18;;;;;;;0.98;0.40;;;12.10;99.90;;;;;;4938178;28;20035;-79
2020/12/22 11:46:45;;;;;;;0.82;0.45;;;12.10;99.90;;;;;;4954573;28;20471;-79
2020/12/22 11:49:13;;;;;;;0.77;0.60;;;12.10;99.90;;;;;;4954125;28;20058;-80
2020/12/22 11:51:39;;;;;;;0.55;0.50;;;12.10;99.90;;;;;;4954945;28;20046;-79
2020/12/22 11:54:06;;;;;;;0.50;0.40;;;12.10;99.90;;;;;;4938681;28;20149;-79
2020/12/22 11:56:38;;;;;;;1.00;0.50;;;12.20;99.90;;;;;;4939288;28;20511;-79
2020/12/22 11:59:04;;;;;;;1.77;0.95;;;12.20;99.90;;;;;;4953520;28;20143;-79
2020/12/22 12:01:30;;;;;;;0.60;0.40;;;12.20;99.90;;;;;;4938336;28;20097;-79
2020/12/22 12:03:56;;;;;;;0.85;0.57;;;12.20;99.90;;;;;;4954103;28;20142;-79
2020/12/22 12:06:23;;;;;;;1.05;0.30;;;12.30;99.90;;;;;;4954234;28;20125;-79
2020/12/22 12:08:54;;;;;;;0.80;0.35;;;12.40;99.90;;;;;;4937714;28;20105;-79
2020/12/22 12:11:25;;;;;;;0.80;0.47;;;12.40;99.90;;;;;;4938924;28;20133;-78
2020/12/22 12:13:52;;;;;;;0.30;0.30;;;12.40;99.90;;;;;;4954099;28;20058;-79
2020/12/22 12:16:23;;;;;;;0.40;0.40;;;12.40;99.90;;;;;;4939154;28;20043;-78
2020/12/22 12:18:54;;;;;;;0.70;0.30;;;12.40;99.90;;;;;;4953542;28;20050;-78
2020/12/22 12:21:20;;;;;;;0.57;0.40;;;12.50;99.90;;;;;;4932794;29;20138;-79
2020/12/22 12:23:47;;;;;;;0.70;0.40;;;12.50;99.90;;;;;;4938397;28;20138;-80
2020/12/22 12:26:18;;;;;;;1.15;0.47;;;12.60;99.90;;;;;;4939006;28;20047;-79
2020/12/22 12:28:50;;;;;;;1.02;0.52;;;12.60;99.90;;;;;;4953680;28;20093;-79
2020/12/22 12:31:17;;;;;;;0.80;0.40;;;12.60;99.90;;;;;;4954488;28;20053;-79
2020/12/22 12:33:48;;;;;;;0.60;0.30;;;12.60;99.90;;;;;;4924602;28;20043;-80
2020/12/22 12:36:19;;;;;;;0.43;0.38;;;12.60;99.90;;;;;;4936096;29;20070;-79
2020/12/22 12:38:46;;;;;;;0.45;0.45;;;12.60;99.90;;;;;;4922448;29;20146;-79
2020/12/22 12:41:17;;;;;;;0.65;0.40;;;12.60;99.90;;;;;;4944354;29;20049;-80
2020/12/22 12:43:45;;;;;;;0.95;0.40;;;12.60;99.90;;;;;;4930661;28;20047;-79
2020/12/22 12:46:18;;;;;;;0.60;0.50;;;12.50;99.90;;;;;;4939742;29;20486;-80
2020/12/22 12:48:45;;;;;;;0.80;0.40;;;12.60;99.90;;;;;;4923720;29;20043;-79
2020/12/22 12:51:18;;;;;;;0.80;0.43;;;12.50;99.90;;;;;;4949250;28;20047;-79
2020/12/22 12:53:50;;;;;;;1.80;0.47;;;12.50;99.90;;;;;;4936848;29;20051;-79
2020/12/22 12:56:19;;;;;;;0.50;0.45;;;12.60;99.90;;;;;;4923735;28;20099;-79
2020/12/22 12:58:49;;;;;;;0.57;0.35;;;12.60;99.90;;;;;;4919788;29;20099;-79
2020/12/22 13:01:26;;;;;;;0.68;0.40;;;12.50;99.90;;;;;;4906052;29;20055;-80
2020/12/22 13:03:54;;;;;;;0.52;0.40;;;12.50;99.90;;;;;;4920011;29;20623;-80
2020/12/22 13:06:24;;;;;;;3.42;0.50;;;12.60;99.90;;;;;;4936636;29;20079;-79
2020/12/22 13:08:57;;;;;;;0.73;0.50;;;12.60;99.90;;;;;;4927972;28;20050;-79
2020/12/22 13:11:34;;;;;;;0.57;0.35;;;12.60;99.90;;;;;;4951656;28;20070;-80
2020/12/22 13:14:03;;;;;;;0.70;0.68;;;12.60;99.90;;;;;;4948883;29;20040;-80
2020/12/22 13:16:32;;;;;;;0.90;0.47;;;12.60;99.90;;;;;;4932754;28;20070;-80
2020/12/22 13:19:01;;;;;;;1.95;0.40;;;12.60;99.90;;;;;;4958661;28;20067;-79
2020/12/22 13:21:31;;;;;;;0.88;0.30;;;12.60;99.90;;;;;;4951616;29;20106;-80
2020/12/22 13:24:00;;;;;;;0.68;0.40;;;12.60;99.90;;;;;;4944119;29;20047;-79
2020/12/22 13:26:35;;;;;;;0.77;0.50;;;12.60;99.90;;;;;;4949057;28;20066;-79
2020/12/22 13:29:09;;;;;;;0.85;0.40;;;12.60;99.90;;;;;;4943019;28;20046;-79
2020/12/22 13:31:36;;;;;;;0.82;0.40;;;12.50;99.90;;;;;;4958633;28;20105;-79
2020/12/22 13:34:04;;;;;;;0.77;0.60;;;12.50;99.90;;;;;;4958117;28;20070;-79
2020/12/22 13:36:31;;;;;;;0.70;0.40;;;12.50;99.90;;;;;;4942356;28;20043;-79
2020/12/22 13:39:03;;;;;;;0.60;0.40;;;12.50;99.90;;;;;;4958410;28;20114;-78
2020/12/22 13:41:29;;;;;;;0.60;0.40;;;12.50;99.90;;;;;;4940762;28;20055;-79
2020/12/22 13:44:00;;;;;;;0.55;0.40;;;12.50;99.90;;;;;;4940064;28;20107;-79
2020/12/22 13:46:27;;;;;;;0.60;0.45;;;12.50;99.90;;;;;;4937732;28;20047;-79
2020/12/22 13:48:54;;;;;;;0.57;0.40;;;12.60;99.90;;;;;;4942512;28;20086;-79
2020/12/22 13:51:21;;;;;;;0.32;0.30;;;12.50;99.90;;;;;;4954140;28;20039;-79
2020/12/22 13:53:47;;;;;;;1.42;0.40;;;12.50;99.90;;;;;;4943566;28;20039;-78
2020/12/22 13:56:18;;;;;;;1.30;0.57;;;12.50;99.90;;;;;;4962104;28;20159;-78
2020/12/22 13:58:49;;;;;;;1.35;0.50;;;12.60;99.90;;;;;;4930205;29;20130;-78
2020/12/22 14:01:16;;;;;;;0.52;0.40;;;12.60;99.90;;;;;;4926074;29;20051;-78
2020/12/22 14:03:42;;;;;;;0.75;0.47;;;12.70;99.90;;;;;;4961244;28;20058;-78
2020/12/22 14:06:09;;;;;;;0.50;0.32;;;12.70;99.90;;;;;;4945349;28;20050;-78
2020/12/22 14:08:40;;;;;;;0.70;0.50;;;12.70;99.90;;;;;;4945344;28;20051;-78
2020/12/22 14:11:11;;;;;;;0.80;0.40;;;12.70;99.90;;;;;;4943152;28;20466;-78
2020/12/22 14:13:38;;;;;;;0.80;0.43;;;12.70;99.90;;;;;;4928032;28;20078;-78
2020/12/22 14:16:04;;;;;;;1.25;0.60;;;12.80;99.90;;;;;;4941457;29;20050;-78
2020/12/22 14:18:30;;;;;;;0.82;0.43;;;12.80;99.90;;;;;;4927222;28;20051;-78
2020/12/22 14:20:57;;;;;;;4.57;2.45;;;12.90;99.90;;;;;;4960781;28;20057;-78
2020/12/22 14:23:23;;;;;;;8.75;5.40;;;12.80;99.90;;;;;;4961027;28;20440;-79
2020/12/22 14:25:50;;;;;;;2.63;1.80;;;12.90;99.90;;;;;;4943692;28;20042;-78
2020/12/22 14:28:21;;;;;;;0.93;0.60;;;12.80;99.90;;;;;;4946075;28;20041;-78
2020/12/22 14:30:47;;;;;;;1.02;0.80;;;12.70;99.90;;;;;;4961090;28;20043;-77
2020/12/22 14:33:14;;;;;;;3.03;0.90;;;12.70;99.90;;;;;;4953684;29;20058;-78
2020/12/22 14:35:40;;;;;;;0.90;0.65;;;12.70;99.90;;;;;;4929630;28;20105;-78
2020/12/22 14:38:06;;;;;;;2.05;1.67;;;12.70;99.90;;;;;;4956742;28;20153;-78
2020/12/22 14:40:33;;;;;;;1.00;0.50;;;12.70;99.90;;;;;;4957161;28;20415;-78
2020/12/22 14:43:04;;;;;;;1.85;0.90;;;12.70;99.90;;;;;;4946230;28;20046;-78
2020/12/22 14:45:30;;;;;;;1.40;0.90;;;12.70;99.90;;;;;;4945157;28;20459;-78
2020/12/22 14:48:02;;;;;;;0.90;0.63;;;12.60;99.90;;;;;;4961520;28;20117;-78
2020/12/22 14:50:29;;;;;;;6.88;5.35;;;12.70;99.90;;;;;;4960517;28;20398;-78
2020/12/22 14:53:00;;;;;;;0.57;0.40;;;12.60;99.90;;;;;;4945998;28;20074;-77
2020/12/22 14:55:26;;;;;;;2.47;2.08;;;12.60;99.90;;;;;;4946068;28;20051;-78
2020/12/22 14:57:59;;;;;;;1.02;0.60;;;12.60;99.90;;;;;;4961164;28;20046;-78
2020/12/22 15:00:25;;;;;;;0.88;0.60;;;12.60;99.90;;;;;;4956654;28;20090;-78
2020/12/22 15:02:52;;;;;;;1.08;0.75;;;12.60;99.90;;;;;;4941331;28;20063;-78
2020/12/22 15:05:19;;;;;;;3.03;1.40;;;12.60;99.90;;;;;;4942161;28;20047;-79
2020/12/22 15:07:47;;;;;;;1.30;0.90;;;12.50;99.90;;;;;;4941496;28;20521;-78
2020/12/22 15:10:14;;;;;;;4.47;3.05;;;12.50;99.90;;;;;;4941211;28;20051;-77
2020/12/22 15:12:45;;;;;;;5.18;3.60;;;12.50;99.90;;;;;;4957330;28;20101;-78
2020/12/22 15:15:12;;;;;;;4.15;3.35;;;12.40;99.90;;;;;;4941335;28;20081;-78
2020/12/22 15:17:43;;;;;;;2.38;1.40;;;12.40;99.90;;;;;;4941407;28;20133;-78
2020/12/22 15:20:14;;;;;;;7.28;5.43;;;12.40;99.90;;;;;;4957671;28;20057;-78
2020/12/22 15:22:41;;;;;;;2.30;2.10;;;12.40;99.90;;;;;;4941835;28;20126;-78
2020/12/22 15:25:12;;;;;;;1.13;0.70;;;12.40;99.90;;;;;;4955688;28;20509;-77
2020/12/22 15:27:38;;;;;;;2.63;1.30;;;12.40;99.90;;;;;;4956848;28;20074;-77
2020/12/22 15:30:07;;;;;;;3.80;1.40;;;12.50;99.90;;;;;;4956375;28;20184;-79
2020/12/22 15:32:34;;;;;;;1.10;0.70;;;12.50;99.90;;;;;;4956818;28;20070;-80
2020/12/22 15:35:01;;;;;;;0.82;0.65;;;12.50;99.90;;;;;;4957230;28;20134;-78
2020/12/22 15:37:27;;;;;;;0.73;0.60;;;12.50;99.90;;;;;;4957119;28;20558;-79
2020/12/22 15:39:59;;;;;;;0.82;0.55;;;12.50;99.90;;;;;;4938973;28;20050;-78
2020/12/22 15:42:30;;;;;;;1.48;0.47;;;12.50;99.90;;;;;;4955481;28;20043;-79
2020/12/22 15:45:01;;;;;;;0.73;0.60;;;12.40;99.90;;;;;;4936816;28;20146;-78
2020/12/22 15:47:33;;;;;;;3.13;0.40;;;12.50;99.90;;;;;;4921668;29;20043;-79
2020/12/22 15:50:06;;;;;;;1.05;0.60;;;12.50;99.90;;;;;;4935817;29;20054;-79
2020/12/22 15:52:39;;;;;;;0.40;0.40;;;12.50;99.90;;;;;;4920901;29;20098;-79
2020/12/22 15:55:13;;;;;;;2.28;1.05;;;12.50;99.90;;;;;;4920510;29;20097;-79
2020/12/22 15:57:44;;;;;;;0.70;0.50;;;12.50;99.90;;;;;;4937518;29;20126;-79
2020/12/22 16:00:11;;;;;;;1.30;0.80;;;12.50;99.90;;;;;;4937248;29;20578;-78
2020/12/22 16:02:37;;;;;;;1.50;0.77;;;12.50;99.90;;;;;;4937415;29;20054;-78
2020/12/22 16:05:04;;;;;;;0.47;0.47;;;12.50;99.90;;;;;;4936831;29;20567;-79
2020/12/22 16:07:35;;;;;;;0.55;0.40;;;12.50;99.90;;;;;;4921710;29;20081;-79
2020/12/22 16:10:01;;;;;;;1.08;0.40;;;12.40;99.90;;;;;;4920965;29;20051;-79
2020/12/22 16:12:36;;;;;;;1.55;1.42;;;12.40;99.90;;;;;;4921514;29;20059;-78
2020/12/22 16:15:03;;;;;;;1.50;0.45;;;12.40;99.90;;;;;;4920986;29;20066;-78
2020/12/22 16:17:35;;;;;;;0.90;0.30;;;12.30;99.90;;;;;;4921273;29;20051;-79
2020/12/22 16:20:07;;;;;;;2.17;0.55;;;12.30;99.90;;;;;;4937195;29;20057;-78
2020/12/22 16:22:33;;;;;;;1.35;0.95;;;12.40;99.90;;;;;;4921477;29;20057;-80
2020/12/22 16:25:08;;;;;;;0.75;0.50;;;12.40;99.90;;;;;;4917054;29;20058;-78
2020/12/22 16:27:39;;;;;;;1.17;0.65;;;12.40;99.90;;;;;;4914999;29;20514;-79
2020/12/22 16:30:10;;;;;;;1.30;0.70;;;12.30;99.90;;;;;;4915831;29;20071;-79
2020/12/22 16:32:42;;;;;;;1.27;0.80;;;12.30;99.90;;;;;;4900782;29;20055;-79
2020/12/22 16:35:13;;;;;;;1.75;1.10;;;12.40;99.90;;;;;;4915080;29;20062;-79
2020/12/22 16:37:44;;;;;;;1.65;1.00;;;12.40;99.90;;;;;;4899837;29;20056;-79
2020/12/22 16:40:16;;;;;;;1.00;0.63;;;12.40;99.90;;;;;;4915321;29;20044;-78
2020/12/22 16:42:48;;;;;;;0.82;0.50;;;12.30;99.90;;;;;;4900261;29;20047;-78
2020/12/22 16:45:16;;;;;;;0.73;0.50;;;12.30;99.90;;;;;;4914123;29;20043;-79
2020/12/22 16:47:47;;;;;;;0.93;0.55;;;12.30;99.90;;;;;;4914035;29;20548;-77
2020/12/22 16:50:13;;;;;;;2.10;0.85;;;12.30;99.90;;;;;;4915048;29;20146;-78
2020/12/22 16:52:40;;;;;;;0.70;0.50;;;12.30;99.90;;;;;;4915238;29;20158;-78
2020/12/22 16:55:11;;;;;;;0.73;0.50;;;12.30;99.90;;;;;;4915200;29;20142;-79
2020/12/22 16:57:38;;;;;;;1.50;0.90;;;12.30;99.90;;;;;;4915242;29;20693;-79
2020/12/22 17:00:12;;;;;;;3.08;1.85;;;12.30;99.90;;;;;;4900483;29;20083;-78
2020/12/22 17:02:38;;;;;;;1.55;0.90;;;12.30;99.90;;;;;;4899503;29;20422;-78
2020/12/22 17:05:04;;;;;;;3.78;2.13;;;12.30;99.90;;;;;;4914784;29;20146;-78
2020/12/22 17:07:30;;;;;;;5.53;3.17;;;12.30;99.90;;;;;;4915011;29;20566;-78
2020/12/22 17:10:03;;;;;;;1.42;0.90;;;12.20;99.90;;;;;;4913118;29;20075;-79
2020/12/22 17:12:32;;;;;;;2.15;1.45;;;12.20;99.90;;;;;;4899231;29;20151;-78
2020/12/22 17:14:58;;;;;;;2.78;1.60;;;12.10;99.90;;;;;;4914975;29;20508;-78
2020/12/22 17:17:31;;;;;;;0.70;0.50;;;12.10;99.90;;;;;;4916028;29;20130;-78
2020/12/22 17:19:59;;;;;;;2.30;0.68;;;12.10;99.90;;;;;;4916835;29;20070;-77